KRME/RME METAR and TAF weather

Enter ICAO airport designator
Station Type Date Time Source
KRME METAR 2020/11/27 02:53 UTC NOAA

KRME 270253Z AUTO 29006KT 10SM OVC018 11/09 A3003 RMK AO2 SLP170 60002 T01060089 51012


Station Type Date Time Source
KRME Decoded METAR 2020/11/27 02:53 UTC NOAA

GRIFFISS AIRFIELD, NY, United States (KRME) 43-14N 075-24W
Nov 26, 2020 - 09:53 PM EST / 2020.11.27 0253 UTC
Wind: from the WNW (290 degrees) at 7 MPH (6 KT):0
Visibility: 10 mile(s):0
Sky conditions: overcast
Temperature: 51.1 F (10.6 C)
Dew Point: 48.0 F (8.9 C)
Relative Humidity: 89%
Pressure (altimeter): 30.03 in. Hg (1016 hPa)
Pressure tendency: 0.04 inches (1.2 hPa) higher than three hours ago
ob: KRME 270253Z AUTO 29006KT 10SM OVC018 11/09 A3003 RMK AO2 SLP170 60002 T01060089 51012
cycle: 3

Station Type Date Time Source
KRME TAF 2020/11/27 02:22 UTC NOAA

TAF
AMD KRME 270220Z 2702/2724 26007KT P6SM OVC020
FM270400 26007KT P6SM OVC014
FM271000 27005KT P6SM OVC020
FM271900 VRB03KT P6SM BKN035

Example: see airport list